sensor_id;sensor_type;location;lat;lon;timestamp;temperature;humidity
14875;DHT22;7529;48.170;17.138;2022-09-01T00:02:35;17.80;55.40
14875;DHT22;7529;48.170;17.138;2022-09-01T00:06:47;17.80;55.60
14875;DHT22;7529;48.170;17.138;2022-09-01T00:10:59;17.80;56.30
14875;DHT22;7529;48.170;17.138;2022-09-01T00:15:11;17.70;55.90
14875;DHT22;7529;48.170;17.138;2022-09-01T00:19:23;17.70;56.10
14875;DHT22;7529;48.170;17.138;2022-09-01T00:23:35;17.70;56.10
14875;DHT22;7529;48.170;17.138;2022-09-01T00:27:47;17.70;56.20
14875;DHT22;7529;48.170;17.138;2022-09-01T00:31:59;17.70;56.30
14875;DHT22;7529;48.170;17.138;2022-09-01T00:36:11;17.70;56.40
14875;DHT22;7529;48.170;17.138;2022-09-01T00:40:22;17.70;56.50
14875;DHT22;7529;48.170;17.138;2022-09-01T00:44:35;17.70;56.60
14875;DHT22;7529;48.170;17.138;2022-09-01T00:48:56;17.70;56.60
14875;DHT22;7529;48.170;17.138;2022-09-01T00:53:14;17.70;56.70
14875;DHT22;7529;48.170;17.138;2022-09-01T00:57:27;17.70;56.70
14875;DHT22;7529;48.170;17.138;2022-09-01T01:01:38;17.70;56.80
14875;DHT22;7529;48.170;17.138;2022-09-01T01:05:53;17.70;57.40
14875;DHT22;7529;48.170;17.138;2022-09-01T01:10:12;17.70;56.90
14875;DHT22;7529;48.170;17.138;2022-09-01T01:14:27;17.70;57.00
14875;DHT22;7529;48.170;17.138;2022-09-01T01:18:43;17.70;57.00
14875;DHT22;7529;48.170;17.138;2022-09-01T01:27:22;17.70;57.20
14875;DHT22;7529;48.170;17.138;2022-09-01T01:31:34;17.70;57.30
14875;DHT22;7529;48.170;17.138;2022-09-01T01:35:46;17.60;57.30
14875;DHT22;7529;48.170;17.138;2022-09-01T01:39:58;17.50;57.50
14875;DHT22;7529;48.170;17.138;2022-09-01T01:44:12;17.40;57.60
14875;DHT22;7529;48.170;17.138;2022-09-01T01:48:24;17.20;57.80
14875;DHT22;7529;48.170;17.138;2022-09-01T01:52:37;17.10;58.00
14875;DHT22;7529;48.170;17.138;2022-09-01T01:56:48;17.00;58.30
14875;DHT22;7529;48.170;17.138;2022-09-01T02:01:00;16.90;58.30
14875;DHT22;7529;48.170;17.138;2022-09-01T02:05:13;16.90;58.30
14875;DHT22;7529;48.170;17.138;2022-09-01T02:09:32;17.00;58.40
14875;DHT22;7529;48.170;17.138;2022-09-01T02:13:43;17.00;58.40
14875;DHT22;7529;48.170;17.138;2022-09-01T02:17:57;17.10;58.40
14875;DHT22;7529;48.170;17.138;2022-09-01T02:22:10;17.10;58.40
14875;DHT22;7529;48.170;17.138;2022-09-01T02:26:22;17.10;58.40
14875;DHT22;7529;48.170;17.138;2022-09-01T02:30:46;16.90;58.50
14875;DHT22;7529;48.170;17.138;2022-09-01T02:35:00;16.80;58.80
14875;DHT22;7529;48.170;17.138;2022-09-01T02:39:25;16.80;58.90
14875;DHT22;7529;48.170;17.138;2022-09-01T02:43:39;16.70;59.20
14875;DHT22;7529;48.170;17.138;2022-09-01T02:47:53;16.70;59.00
14875;DHT22;7529;48.170;17.138;2022-09-01T02:52:07;16.70;59.10
14875;DHT22;7529;48.170;17.138;2022-09-01T02:56:23;16.70;59.00
14875;DHT22;7529;48.170;17.138;2022-09-01T03:00:35;16.70;59.10
14875;DHT22;7529;48.170;17.138;2022-09-01T03:04:50;16.70;59.00
14875;DHT22;7529;48.170;17.138;2022-09-01T03:09:06;16.80;59.00
14875;DHT22;7529;48.170;17.138;2022-09-01T03:13:22;16.80;59.00
14875;DHT22;7529;48.170;17.138;2022-09-01T03:17:34;16.80;59.00
14875;DHT22;7529;48.170;17.138;2022-09-01T03:21:45;16.90;59.00
14875;DHT22;7529;48.170;17.138;2022-09-01T03:26:03;16.90;59.00
14875;DHT22;7529;48.170;17.138;2022-09-01T03:30:17;16.90;59.00
14875;DHT22;7529;48.170;17.138;2022-09-01T03:34:29;16.90;59.10
14875;DHT22;7529;48.170;17.138;2022-09-01T03:38:46;16.80;59.10
14875;DHT22;7529;48.170;17.138;2022-09-01T03:43:02;16.80;59.20
14875;DHT22;7529;48.170;17.138;2022-09-01T03:47:15;16.80;59.30
14875;DHT22;7529;48.170;17.138;2022-09-01T03:51:28;16.70;59.40
14875;DHT22;7529;48.170;17.138;2022-09-01T03:55:43;16.60;59.40
14875;DHT22;7529;48.170;17.138;2022-09-01T03:59:56;16.50;59.50
14875;DHT22;7529;48.170;17.138;2022-09-01T04:04:10;16.50;59.50
14875;DHT22;7529;48.170;17.138;2022-09-01T04:08:26;16.50;59.50
14875;DHT22;7529;48.170;17.138;2022-09-01T04:12:43;16.50;59.60
14875;DHT22;7529;48.170;17.138;2022-09-01T04:16:55;16.40;59.60
14875;DHT22;7529;48.170;17.138;2022-09-01T04:21:25;16.40;59.70
14875;DHT22;7529;48.170;17.138;2022-09-01T04:25:37;16.40;59.70
14875;DHT22;7529;48.170;17.138;2022-09-01T04:29:49;16.40;59.80
14875;DHT22;7529;48.170;17.138;2022-09-01T04:34:01;16.30;59.80
14875;DHT22;7529;48.170;17.138;2022-09-01T04:38:13;16.30;59.90
14875;DHT22;7529;48.170;17.138;2022-09-01T04:42:29;16.30;60.00
14875;DHT22;7529;48.170;17.138;2022-09-01T04:46:43;16.30;60.00
14875;DHT22;7529;48.170;17.138;2022-09-01T04:51:06;16.30;60.00
14875;DHT22;7529;48.170;17.138;2022-09-01T04:55:38;16.30;60.00
14875;DHT22;7529;48.170;17.138;2022-09-01T04:59:51;16.30;60.00
14875;DHT22;7529;48.170;17.138;2022-09-01T05:04:02;16.30;59.90
14875;DHT22;7529;48.170;17.138;2022-09-01T05:08:23;16.30;60.00
14875;DHT22;7529;48.170;17.138;2022-09-01T05:12:35;16.30;60.00
14875;DHT22;7529;48.170;17.138;2022-09-01T05:16:46;16.40;60.10
14875;DHT22;7529;48.170;17.138;2022-09-01T05:21:05;16.40;60.10
14875;DHT22;7529;48.170;17.138;2022-09-01T05:25:21;16.50;60.00
14875;DHT22;7529;48.170;17.138;2022-09-01T05:29:33;16.70;60.00
14875;DHT22;7529;48.170;17.138;2022-09-01T05:33:52;16.80;59.90
14875;DHT22;7529;48.170;17.138;2022-09-01T05:38:06;17.00;59.80
14875;DHT22;7529;48.170;17.138;2022-09-01T05:42:28;17.20;59.60
14875;DHT22;7529;48.170;17.138;2022-09-01T05:46:42;17.50;59.40
14875;DHT22;7529;48.170;17.138;2022-09-01T05:50:54;17.60;59.30
14875;DHT22;7529;48.170;17.138;2022-09-01T05:55:08;17.70;59.20
14875;DHT22;7529;48.170;17.138;2022-09-01T05:59:23;17.90;59.10
14875;DHT22;7529;48.170;17.138;2022-09-01T06:03:38;18.00;58.90
14875;DHT22;7529;48.170;17.138;2022-09-01T06:07:52;18.10;58.90
14875;DHT22;7529;48.170;17.138;2022-09-01T06:12:09;18.20;59.00
14875;DHT22;7529;48.170;17.138;2022-09-01T06:16:27;18.30;58.90
14875;DHT22;7529;48.170;17.138;2022-09-01T06:20:41;18.30;58.80
14875;DHT22;7529;48.170;17.138;2022-09-01T06:24:54;18.40;58.70
14875;DHT22;7529;48.170;17.138;2022-09-01T06:29:09;18.50;58.70
14875;DHT22;7529;48.170;17.138;2022-09-01T06:33:29;18.60;58.50
14875;DHT22;7529;48.170;17.138;2022-09-01T06:37:43;18.70;58.40
14875;DHT22;7529;48.170;17.138;2022-09-01T06:42:03;18.90;58.40
14875;DHT22;7529;48.170;17.138;2022-09-01T06:46:26;19.00;58.20
14875;DHT22;7529;48.170;17.138;2022-09-01T06:50:42;19.10;58.10
14875;DHT22;7529;48.170;17.138;2022-09-01T06:54:56;19.20;58.00
14875;DHT22;7529;48.170;17.138;2022-09-01T06:59:08;19.40;58.00
14875;DHT22;7529;48.170;17.138;2022-09-01T07:03:21;19.40;57.80
14875;DHT22;7529;48.170;17.138;2022-09-01T07:07:53;19.50;57.70
14875;DHT22;7529;48.170;17.138;2022-09-01T07:12:33;19.60;57.60
14875;DHT22;7529;48.170;17.138;2022-09-01T07:16:45;19.80;57.70
14875;DHT22;7529;48.170;17.138;2022-09-01T07:20:57;20.00;57.20
14875;DHT22;7529;48.170;17.138;2022-09-01T07:25:09;20.20;56.90
14875;DHT22;7529;48.170;17.138;2022-09-01T07:29:53;20.70;56.60
14875;DHT22;7529;48.170;17.138;2022-09-01T07:34:09;21.10;56.00
14875;DHT22;7529;48.170;17.138;2022-09-01T07:38:24;21.20;55.60
14875;DHT22;7529;48.170;17.138;2022-09-01T07:42:36;21.50;55.10
14875;DHT22;7529;48.170;17.138;2022-09-01T07:47:08;21.60;54.70
14875;DHT22;7529;48.170;17.138;2022-09-01T07:51:22;21.80;54.20
14875;DHT22;7529;48.170;17.138;2022-09-01T07:55:39;22.00;53.90
14875;DHT22;7529;48.170;17.138;2022-09-01T07:59:52;22.20;53.60
14875;DHT22;7529;48.170;17.138;2022-09-01T08:04:23;22.70;53.10
14875;DHT22;7529;48.170;17.138;2022-09-01T08:08:37;23.90;51.90
14875;DHT22;7529;48.170;17.138;2022-09-01T08:12:52;25.80;50.30
14875;DHT22;7529;48.170;17.138;2022-09-01T08:17:04;28.20;48.80
14875;DHT22;7529;48.170;17.138;2022-09-01T08:21:20;29.20;47.00
14875;DHT22;7529;48.170;17.138;2022-09-01T08:26:14;31.00;45.70
14875;DHT22;7529;48.170;17.138;2022-09-01T08:30:28;34.10;43.10
14875;DHT22;7529;48.170;17.138;2022-09-01T08:34:42;32.80;43.10
14875;DHT22;7529;48.170;17.138;2022-09-01T08:38:54;31.50;43.10
14875;DHT22;7529;48.170;17.138;2022-09-01T08:47:36;38.10;39.20
14875;DHT22;7529;48.170;17.138;2022-09-01T08:51:52;41.70;36.30
14875;DHT22;7529;48.170;17.138;2022-09-01T08:56:09;42.50;34.00
14875;DHT22;7529;48.170;17.138;2022-09-01T09:00:24;40.00;34.70
14875;DHT22;7529;48.170;17.138;2022-09-01T09:05:05;41.60;33.70
14875;DHT22;7529;48.170;17.138;2022-09-01T09:09:19;43.30;31.30
14875;DHT22;7529;48.170;17.138;2022-09-01T09:13:48;39.80;33.20
14875;DHT22;7529;48.170;17.138;2022-09-01T09:18:15;37.80;32.50
14875;DHT22;7529;48.170;17.138;2022-09-01T09:22:35;39.80;31.50
14875;DHT22;7529;48.170;17.138;2022-09-01T09:26:55;43.20;30.10
14875;DHT22;7529;48.170;17.138;2022-09-01T09:35:46;46.50;27.70
14875;DHT22;7529;48.170;17.138;2022-09-01T09:40:13;42.60;28.60
14875;DHT22;7529;48.170;17.138;2022-09-01T09:44:30;38.80;29.40
14875;DHT22;7529;48.170;17.138;2022-09-01T09:48:43;36.00;29.90
14875;DHT22;7529;48.170;17.138;2022-09-01T09:53:26;33.70;30.60
14875;DHT22;7529;48.170;17.138;2022-09-01T09:57:39;34.40;30.00
14875;DHT22;7529;48.170;17.138;2022-09-01T10:01:58;35.70;29.90
14875;DHT22;7529;48.170;17.138;2022-09-01T10:06:13;35.20;29.70
14875;DHT22;7529;48.170;17.138;2022-09-01T10:15:09;31.40;30.50
14875;DHT22;7529;48.170;17.138;2022-09-01T10:19:34;31.40;30.50
14875;DHT22;7529;48.170;17.138;2022-09-01T10:23:46;35.50;29.60
14875;DHT22;7529;48.170;17.138;2022-09-01T10:28:16;35.50;29.50
14875;DHT22;7529;48.170;17.138;2022-09-01T10:32:41;34.70;29.40
14875;DHT22;7529;48.170;17.138;2022-09-01T10:36:54;33.90;29.50
14875;DHT22;7529;48.170;17.138;2022-09-01T10:41:06;34.50;29.30
14875;DHT22;7529;48.170;17.138;2022-09-01T10:45:33;36.00;29.10
14875;DHT22;7529;48.170;17.138;2022-09-01T10:53:59;43.50;27.00
14875;DHT22;7529;48.170;17.138;2022-09-01T11:07:32;49.90;23.80
14875;DHT22;7529;48.170;17.138;2022-09-01T11:16:40;51.50;23.00
14875;DHT22;7529;48.170;17.138;2022-09-01T11:20:53;51.80;23.60
14875;DHT22;7529;48.170;17.138;2022-09-01T11:34:10;52.10;22.80
14875;DHT22;7529;48.170;17.138;2022-09-01T11:38:26;49.30;22.40
14875;DHT22;7529;48.170;17.138;2022-09-01T11:42:41;44.90;23.50
14875;DHT22;7529;48.170;17.138;2022-09-01T11:46:59;44.90;23.20
14875;DHT22;7529;48.170;17.138;2022-09-01T11:51:14;41.00;23.80
14875;DHT22;7529;48.170;17.138;2022-09-01T11:55:33;37.20;24.70
14875;DHT22;7529;48.170;17.138;2022-09-01T11:59:47;34.10;25.40
14875;DHT22;7529;48.170;17.138;2022-09-01T12:08:35;30.80;26.80
14875;DHT22;7529;48.170;17.138;2022-09-01T12:12:49;30.20;26.90
14875;DHT22;7529;48.170;17.138;2022-09-01T12:17:10;30.30;27.00
14875;DHT22;7529;48.170;17.138;2022-09-01T12:21:34;30.60;27.10
14875;DHT22;7529;48.170;17.138;2022-09-01T12:25:56;30.50;27.30
14875;DHT22;7529;48.170;17.138;2022-09-01T12:30:11;29.50;27.80
14875;DHT22;7529;48.170;17.138;2022-09-01T12:38:43;27.90;28.70
14875;DHT22;7529;48.170;17.138;2022-09-01T12:42:55;27.30;29.00
14875;DHT22;7529;48.170;17.138;2022-09-01T12:47:09;26.70;29.50
14875;DHT22;7529;48.170;17.138;2022-09-01T12:51:24;26.60;29.70
14875;DHT22;7529;48.170;17.138;2022-09-01T12:55:36;26.20;29.90
14875;DHT22;7529;48.170;17.138;2022-09-01T12:59:48;25.80;30.20
14875;DHT22;7529;48.170;17.138;2022-09-01T13:04:29;25.50;30.50
14875;DHT22;7529;48.170;17.138;2022-09-01T13:08:41;25.20;31.50
14875;DHT22;7529;48.170;17.138;2022-09-01T13:12:54;25.10;31.10
14875;DHT22;7529;48.170;17.138;2022-09-01T13:17:08;25.10;31.30
14875;DHT22;7529;48.170;17.138;2022-09-01T13:21:19;25.10;31.30
14875;DHT22;7529;48.170;17.138;2022-09-01T13:25:31;25.30;31.50
14875;DHT22;7529;48.170;17.138;2022-09-01T13:29:43;25.40;31.80
14875;DHT22;7529;48.170;17.138;2022-09-01T13:33:57;25.50;31.80
14875;DHT22;7529;48.170;17.138;2022-09-01T13:38:09;25.50;31.80
14875;DHT22;7529;48.170;17.138;2022-09-01T13:42:21;25.80;31.90
14875;DHT22;7529;48.170;17.138;2022-09-01T13:46:32;25.90;32.00
14875;DHT22;7529;48.170;17.138;2022-09-01T13:50:49;26.10;32.10
14875;DHT22;7529;48.170;17.138;2022-09-01T13:55:04;26.20;32.30
14875;DHT22;7529;48.170;17.138;2022-09-01T13:59:16;26.20;32.40
14875;DHT22;7529;48.170;17.138;2022-09-01T14:03:28;26.00;32.50
14875;DHT22;7529;48.170;17.138;2022-09-01T14:07:42;25.90;32.70
14875;DHT22;7529;48.170;17.138;2022-09-01T14:11:54;25.60;32.90
14875;DHT22;7529;48.170;17.138;2022-09-01T14:16:13;25.60;33.20
14875;DHT22;7529;48.170;17.138;2022-09-01T14:20:31;25.70;33.40
14875;DHT22;7529;48.170;17.138;2022-09-01T14:24:48;25.70;33.40
14875;DHT22;7529;48.170;17.138;2022-09-01T14:28:59;25.50;33.50
14875;DHT22;7529;48.170;17.138;2022-09-01T14:33:12;25.50;33.70
14875;DHT22;7529;48.170;17.138;2022-09-01T14:37:24;25.70;33.60
14875;DHT22;7529;48.170;17.138;2022-09-01T14:41:36;25.80;33.60
14875;DHT22;7529;48.170;17.138;2022-09-01T14:45:47;25.90;33.70
14875;DHT22;7529;48.170;17.138;2022-09-01T14:50:00;25.90;33.70
14875;DHT22;7529;48.170;17.138;2022-09-01T14:54:12;26.00;33.80
14875;DHT22;7529;48.170;17.138;2022-09-01T14:58:25;26.00;33.90
14875;DHT22;7529;48.170;17.138;2022-09-01T15:02:38;25.90;34.00
14875;DHT22;7529;48.170;17.138;2022-09-01T15:06:50;25.80;34.10
14875;DHT22;7529;48.170;17.138;2022-09-01T15:11:02;25.50;34.20
14875;DHT22;7529;48.170;17.138;2022-09-01T15:15:14;25.20;34.50
14875;DHT22;7529;48.170;17.138;2022-09-01T15:19:26;25.00;34.70
14875;DHT22;7529;48.170;17.138;2022-09-01T15:23:38;24.80;34.80
14875;DHT22;7529;48.170;17.138;2022-09-01T15:27:49;24.80;34.90
14875;DHT22;7529;48.170;17.138;2022-09-01T15:32:01;24.60;35.00
14875;DHT22;7529;48.170;17.138;2022-09-01T15:36:18;24.50;35.10
14875;DHT22;7529;48.170;17.138;2022-09-01T15:40:33;24.40;35.30
14875;DHT22;7529;48.170;17.138;2022-09-01T15:44:44;24.20;35.20
14875;DHT22;7529;48.170;17.138;2022-09-01T15:49:02;24.10;35.40
14875;DHT22;7529;48.170;17.138;2022-09-01T15:53:17;23.90;35.60
14875;DHT22;7529;48.170;17.138;2022-09-01T15:57:29;23.70;35.70
14875;DHT22;7529;48.170;17.138;2022-09-01T16:01:43;23.40;35.80
14875;DHT22;7529;48.170;17.138;2022-09-01T16:05:59;23.20;36.00
14875;DHT22;7529;48.170;17.138;2022-09-01T16:10:12;23.10;36.10
14875;DHT22;7529;48.170;17.138;2022-09-01T16:14:24;23.00;36.20
14875;DHT22;7529;48.170;17.138;2022-09-01T16:23:42;22.90;36.60
14875;DHT22;7529;48.170;17.138;2022-09-01T16:28:01;22.80;36.30
14875;DHT22;7529;48.170;17.138;2022-09-01T16:32:16;22.70;36.40
14875;DHT22;7529;48.170;17.138;2022-09-01T16:36:44;22.70;36.50
14875;DHT22;7529;48.170;17.138;2022-09-01T16:41:25;22.60;36.50
14875;DHT22;7529;48.170;17.138;2022-09-01T16:59:53;22.50;36.60
14875;DHT22;7529;48.170;17.138;2022-09-01T17:04:27;23.20;36.20
14875;DHT22;7529;48.170;17.138;2022-09-01T17:09:39;23.50;36.00
14875;DHT22;7529;48.170;17.138;2022-09-01T17:13:47;22.80;36.40
14875;DHT22;7529;48.170;17.138;2022-09-01T17:18:31;22.50;36.90
14875;DHT22;7529;48.170;17.138;2022-09-01T17:22:52;22.10;37.20
14875;DHT22;7529;48.170;17.138;2022-09-01T17:27:37;21.90;37.20
14875;DHT22;7529;48.170;17.138;2022-09-01T17:32:11;21.70;37.60
14875;DHT22;7529;48.170;17.138;2022-09-01T17:36:49;21.60;37.70
14875;DHT22;7529;48.170;17.138;2022-09-01T17:47:00;21.30;38.10
14875;DHT22;7529;48.170;17.138;2022-09-01T17:56:02;21.10;38.40
14875;DHT22;7529;48.170;17.138;2022-09-01T18:04:56;20.80;38.60
14875;DHT22;7529;48.170;17.138;2022-09-01T18:09:16;20.70;39.00
14875;DHT22;7529;48.170;17.138;2022-09-01T18:13:46;20.60;39.00
14875;DHT22;7529;48.170;17.138;2022-09-01T18:18:09;20.60;39.10
14875;DHT22;7529;48.170;17.138;2022-09-01T18:22:25;20.60;39.20
14875;DHT22;7529;48.170;17.138;2022-09-01T18:26:40;20.50;39.20
14875;DHT22;7529;48.170;17.138;2022-09-01T18:45:34;20.30;39.80
14875;DHT22;7529;48.170;17.138;2022-09-01T18:50:07;20.20;39.80
14875;DHT22;7529;48.170;17.138;2022-09-01T19:21:51;19.70;40.60
14875;DHT22;7529;48.170;17.138;2022-09-01T19:26:10;19.50;40.50
14875;DHT22;7529;48.170;17.138;2022-09-01T19:30:26;19.40;40.70
14875;DHT22;7529;48.170;17.138;2022-09-01T19:34:45;19.30;40.80
14875;DHT22;7529;48.170;17.138;2022-09-01T19:39:00;19.20;40.90
14875;DHT22;7529;48.170;17.138;2022-09-01T19:43:14;19.10;40.90
14875;DHT22;7529;48.170;17.138;2022-09-01T19:47:48;19.10;41.00
14875;DHT22;7529;48.170;17.138;2022-09-01T19:57:17;19.30;41.20
14875;DHT22;7529;48.170;17.138;2022-09-01T20:06:16;19.30;41.30
14875;DHT22;7529;48.170;17.138;2022-09-01T20:10:41;19.30;41.10
14875;DHT22;7529;48.170;17.138;2022-09-01T20:20:15;19.20;41.50
14875;DHT22;7529;48.170;17.138;2022-09-01T20:24:36;19.10;41.20
14875;DHT22;7529;48.170;17.138;2022-09-01T20:37:48;19.10;41.70
14875;DHT22;7529;48.170;17.138;2022-09-01T20:42:04;19.00;41.50
14875;DHT22;7529;48.170;17.138;2022-09-01T20:46:19;19.10;41.50
14875;DHT22;7529;48.170;17.138;2022-09-01T21:00:07;19.00;41.90
14875;DHT22;7529;48.170;17.138;2022-09-01T21:14:05;18.90;41.90
14875;DHT22;7529;48.170;17.138;2022-09-01T21:23:36;18.90;42.10
14875;DHT22;7529;48.170;17.138;2022-09-01T21:27:53;18.80;42.00
14875;DHT22;7529;48.170;17.138;2022-09-01T21:32:06;18.80;42.20
14875;DHT22;7529;48.170;17.138;2022-09-01T21:36:18;18.70;42.40
14875;DHT22;7529;48.170;17.138;2022-09-01T21:40:30;18.60;42.50
14875;DHT22;7529;48.170;17.138;2022-09-01T21:44:41;18.50;42.60
14875;DHT22;7529;48.170;17.138;2022-09-01T21:48:54;18.40;42.80
14875;DHT22;7529;48.170;17.138;2022-09-01T21:53:07;18.40;42.90
14875;DHT22;7529;48.170;17.138;2022-09-01T21:57:19;18.40;43.00
14875;DHT22;7529;48.170;17.138;2022-09-01T22:01:34;18.30;43.10
14875;DHT22;7529;48.170;17.138;2022-09-01T22:05:45;18.30;43.30
14875;DHT22;7529;48.170;17.138;2022-09-01T22:09:57;18.30;43.50
14875;DHT22;7529;48.170;17.138;2022-09-01T22:14:10;18.20;43.50
14875;DHT22;7529;48.170;17.138;2022-09-01T22:18:22;18.20;43.70
14875;DHT22;7529;48.170;17.138;2022-09-01T22:22:34;18.20;43.70
14875;DHT22;7529;48.170;17.138;2022-09-01T22:26:47;18.20;43.80
14875;DHT22;7529;48.170;17.138;2022-09-01T22:30:59;18.20;43.80
14875;DHT22;7529;48.170;17.138;2022-09-01T22:35:11;18.20;43.80
14875;DHT22;7529;48.170;17.138;2022-09-01T22:39:24;18.20;43.80
14875;DHT22;7529;48.170;17.138;2022-09-01T22:43:36;18.20;43.80
14875;DHT22;7529;48.170;17.138;2022-09-01T22:47:48;18.20;43.90
14875;DHT22;7529;48.170;17.138;2022-09-01T22:52:00;18.20;43.90
14875;DHT22;7529;48.170;17.138;2022-09-01T22:56:17;18.20;43.90
14875;DHT22;7529;48.170;17.138;2022-09-01T23:00:34;18.20;44.00
14875;DHT22;7529;48.170;17.138;2022-09-01T23:04:46;18.20;44.00
14875;DHT22;7529;48.170;17.138;2022-09-01T23:08:59;18.20;44.00
14875;DHT22;7529;48.170;17.138;2022-09-01T23:13:12;18.20;44.00
14875;DHT22;7529;48.170;17.138;2022-09-01T23:17:23;18.20;44.00
14875;DHT22;7529;48.170;17.138;2022-09-01T23:21:36;18.20;44.00
14875;DHT22;7529;48.170;17.138;2022-09-01T23:25:48;18.20;44.10
14875;DHT22;7529;48.170;17.138;2022-09-01T23:30:00;18.20;44.10
14875;DHT22;7529;48.170;17.138;2022-09-01T23:34:11;18.20;44.10
14875;DHT22;7529;48.170;17.138;2022-09-01T23:38:24;18.20;44.10
14875;DHT22;7529;48.170;17.138;2022-09-01T23:42:35;18.20;44.10
14875;DHT22;7529;48.170;17.138;2022-09-01T23:46:47;18.20;44.20
14875;DHT22;7529;48.170;17.138;2022-09-01T23:51:05;18.20;44.20
14875;DHT22;7529;48.170;17.138;2022-09-01T23:55:18;18.20;44.20
14875;DHT22;7529;48.170;17.138;2022-09-01T23:59:31;18.20;44.30
